createdAt,value
2023-01-10T00:02:04.854Z,62.92
2023-01-10T00:04:32.362Z,62.95
2023-01-10T00:06:59.357Z,63.15
2023-01-10T00:09:26.958Z,63.29
2023-01-10T00:12:14.891Z,63.39
2023-01-10T00:14:42.995Z,63.43
2023-01-10T00:17:14.417Z,63.45
2023-01-10T00:19:42.660Z,63.27
2023-01-10T00:22:10.411Z,63.61
2023-01-10T00:24:42.968Z,63.18
2023-01-10T00:27:12.773Z,63.28
2023-01-10T00:29:40.251Z,63.09
2023-01-10T00:32:07.426Z,63.15
2023-01-10T00:34:36.191Z,63.23
2023-01-10T00:37:03.207Z,63.00
2023-01-10T00:39:32.990Z,63.19
2023-01-10T00:42:19.024Z,63.07
2023-01-10T00:44:46.420Z,62.64
2023-01-10T00:47:14.517Z,62.50
2023-01-10T00:49:44.929Z,62.21
2023-01-10T00:52:12.202Z,62.34
2023-01-10T00:54:39.669Z,62.30
2023-01-10T00:57:09.725Z,61.96
2023-01-10T00:59:38.747Z,61.68
2023-01-10T01:02:06.202Z,61.84
2023-01-10T01:04:34.004Z,61.72
2023-01-10T01:07:01.703Z,61.78
2023-01-10T01:09:29.294Z,61.65
2023-01-10T01:11:56.474Z,61.88
2023-01-10T01:14:24.808Z,61.70
2023-01-10T01:16:51.648Z,61.59
2023-01-10T01:19:19.117Z,61.45
2023-01-10T01:21:46.247Z,61.72
2023-01-10T01:24:12.979Z,61.65
2023-01-10T01:26:42.119Z,61.68
2023-01-10T01:29:09.088Z,61.74
2023-01-10T01:31:36.268Z,61.89
2023-01-10T01:34:04.579Z,61.80
2023-01-10T01:36:31.221Z,62.07
2023-01-10T01:38:58.551Z,62.34
2023-01-10T01:41:43.678Z,62.36
2023-01-10T01:44:15.965Z,62.59
2023-01-10T01:46:49.167Z,62.76
2023-01-10T01:49:20.388Z,62.99
2023-01-10T01:51:54.462Z,63.10
2023-01-10T01:54:21.333Z,63.03
2023-01-10T01:56:51.377Z,63.18
2023-01-10T01:59:36.268Z,63.22
2023-01-10T02:02:30.259Z,63.37
2023-01-10T02:05:00.208Z,63.81
2023-01-10T02:07:28.779Z,63.75
2023-01-10T02:10:00.895Z,63.95
2023-01-10T02:12:28.630Z,64.17
2023-01-10T02:14:55.929Z,64.34
2023-01-10T02:17:23.287Z,64.37
2023-01-10T02:20:01.099Z,64.54
2023-01-10T02:22:52.589Z,64.97
2023-01-10T02:25:56.966Z,65.13
2023-01-10T02:28:46.668Z,65.38
2023-01-10T02:31:39.989Z,65.56
2023-01-10T02:34:10.968Z,65.69
2023-01-10T02:36:51.183Z,65.76
2023-01-10T02:39:23.228Z,65.91
2023-01-10T02:41:55.805Z,66.04
2023-01-10T02:44:28.622Z,66.29
2023-01-10T02:46:55.692Z,66.35
2023-01-10T02:49:22.499Z,66.53
2023-01-10T02:51:49.386Z,66.59
2023-01-10T02:54:18.819Z,66.61
2023-01-10T02:57:03.943Z,66.68
2023-01-10T02:59:38.073Z,66.69
2023-01-10T03:02:36.656Z,66.50
2023-01-10T03:05:38.292Z,66.25
2023-01-10T03:08:18.147Z,66.19
2023-01-10T03:10:55.741Z,66.03
2023-01-10T03:13:41.425Z,65.87
2023-01-10T03:16:11.604Z,65.66
2023-01-10T03:19:01.021Z,65.88
2023-01-10T03:21:28.357Z,66.09
2023-01-10T03:23:58.012Z,66.33
2023-01-10T03:26:35.349Z,66.45
2023-01-10T03:29:05.947Z,66.41
2023-01-10T03:31:43.498Z,66.38
2023-01-10T03:34:10.372Z,66.14
2023-01-10T03:36:41.718Z,66.11
2023-01-10T03:39:24.515Z,66.33
2023-01-10T03:42:13.692Z,66.43
2023-01-10T03:45:08.626Z,66.78
2023-01-10T03:47:46.117Z,66.97
2023-01-10T03:50:20.042Z,67.18
2023-01-10T03:52:46.711Z,67.16
2023-01-10T03:55:15.180Z,67.19
2023-01-10T03:57:48.491Z,67.33
2023-01-10T04:00:15.637Z,67.41
2023-01-10T04:02:43.674Z,67.55
2023-01-10T04:05:10.658Z,67.78
2023-01-10T04:07:38.925Z,67.70
2023-01-10T04:10:06.610Z,67.51
2023-01-10T04:12:33.723Z,67.40
2023-01-10T04:15:00.927Z,67.48
2023-01-10T04:17:27.564Z,67.51
2023-01-10T04:19:54.530Z,67.55
2023-01-10T04:22:21.231Z,67.67
2023-01-10T04:24:50.572Z,67.85
2023-01-10T04:27:18.028Z,67.97
2023-01-10T04:29:46.499Z,68.03
2023-01-10T04:32:16.034Z,67.95
2023-01-10T04:34:44.861Z,68.32
2023-01-10T04:37:12.052Z,68.63
2023-01-10T04:39:38.661Z,68.64
2023-01-10T04:42:07.800Z,68.73
2023-01-10T04:44:34.708Z,68.63
2023-01-10T04:47:01.371Z,68.42
2023-01-10T04:49:28.110Z,68.34
2023-01-10T04:51:54.861Z,68.41
2023-01-10T04:54:21.767Z,68.51
2023-01-10T04:56:48.565Z,68.53
2023-01-10T04:59:15.438Z,68.59
2023-01-10T05:01:42.423Z,68.73
2023-01-10T05:04:09.081Z,68.69
2023-01-10T05:06:39.778Z,68.79
2023-01-10T05:09:07.879Z,68.93
2023-01-10T05:11:35.106Z,69.15
2023-01-10T05:14:02.288Z,69.39
2023-01-10T05:16:29.148Z,69.52
2023-01-10T05:18:55.866Z,69.73
2023-01-10T05:21:22.741Z,69.94
2023-01-10T05:23:49.277Z,69.73
2023-01-10T05:26:18.740Z,69.65
2023-01-10T05:28:45.506Z,69.93
2023-01-10T05:31:14.375Z,70.38
2023-01-10T05:33:45.959Z,70.31
2023-01-10T05:36:13.109Z,70.59
2023-01-10T05:38:39.994Z,70.89
2023-01-10T05:41:07.006Z,71.17
2023-01-10T05:45:12.242Z,71.89
2023-01-10T05:47:39.146Z,71.97
2023-01-10T05:50:06.678Z,72.50
2023-01-10T05:52:33.527Z,72.48
2023-01-10T05:55:00.284Z,72.78
2023-01-10T05:57:27.092Z,73.05
2023-01-10T05:59:53.864Z,73.15
2023-01-10T06:02:20.925Z,73.32
2023-01-10T06:04:47.865Z,73.62
2023-01-10T06:07:14.904Z,74.03
2023-01-10T06:09:41.701Z,74.02
2023-01-10T06:12:08.473Z,74.05
2023-01-10T06:14:35.288Z,74.39
2023-01-10T06:17:02.040Z,74.32
2023-01-10T06:19:28.962Z,74.36
2023-01-10T06:21:55.831Z,74.42
2023-01-10T06:24:22.679Z,74.60
2023-01-10T06:26:49.570Z,74.79
2023-01-10T06:29:16.404Z,74.68
2023-01-10T06:31:43.312Z,74.46
2023-01-10T06:34:10.225Z,74.20
2023-01-10T06:36:37.378Z,74.38
2023-01-10T06:39:04.357Z,74.47
2023-01-10T06:41:31.327Z,74.40
2023-01-10T06:44:00.776Z,74.30
2023-01-10T06:46:27.758Z,73.71
2023-01-10T06:48:54.560Z,73.80
2023-01-10T06:51:21.413Z,73.66
2023-01-10T06:53:48.248Z,73.46
2023-01-10T06:56:15.353Z,73.31
2023-01-10T06:58:42.336Z,73.00
2023-01-10T07:01:16.911Z,73.03
2023-01-10T07:03:44.225Z,72.84
2023-01-10T07:06:11.241Z,73.05
2023-01-10T07:08:42.032Z,72.99
2023-01-10T07:11:10.704Z,72.89
2023-01-10T07:13:37.508Z,73.05
2023-01-10T07:16:05.729Z,72.79
2023-01-10T07:18:34.233Z,72.43
2023-01-10T07:21:01.083Z,72.16
2023-01-10T07:23:28.003Z,72.23
2023-01-10T07:25:54.785Z,72.12
2023-01-10T07:28:21.663Z,71.94
2023-01-10T07:30:49.528Z,72.11
2023-01-10T07:33:16.293Z,72.39
2023-01-10T07:35:43.383Z,72.47
2023-01-10T07:38:10.245Z,72.62
2023-01-10T07:40:37.082Z,72.43
2023-01-10T07:43:03.968Z,72.51
2023-01-10T07:45:30.799Z,72.34
2023-01-10T07:48:01.652Z,72.31
2023-01-10T07:50:30.957Z,72.09
2023-01-10T07:52:59.951Z,72.08
2023-01-10T07:55:27.575Z,72.28
2023-01-10T07:57:54.718Z,72.13
2023-01-10T08:00:21.952Z,72.00
2023-01-10T08:02:55.218Z,71.63
2023-01-10T08:05:23.352Z,71.66
2023-01-10T08:07:50.411Z,71.55
2023-01-10T08:10:17.570Z,71.58
2023-01-10T08:12:44.513Z,71.46
2023-01-10T08:15:11.626Z,71.34
2023-01-10T08:17:38.804Z,71.45
2023-01-10T08:20:07.302Z,71.15
2023-01-10T08:22:34.969Z,70.97
2023-01-10T08:25:01.889Z,70.92
2023-01-10T08:27:36.745Z,70.81
2023-01-10T08:30:11.352Z,70.52
2023-01-10T08:32:40.080Z,70.21
2023-01-10T08:35:07.308Z,69.64
2023-01-10T08:37:36.116Z,69.48
2023-01-10T08:40:03.705Z,69.44
2023-01-10T08:42:31.394Z,69.16
2023-01-10T08:45:01.961Z,69.23
2023-01-10T08:47:43.899Z,69.41
2023-01-10T08:50:12.010Z,69.25
2023-01-10T08:52:39.757Z,68.88
2023-01-10T08:55:07.555Z,68.64
2023-01-10T08:57:34.580Z,68.39
2023-01-10T09:00:01.791Z,67.61
2023-01-10T09:02:28.960Z,67.43
2023-01-10T09:04:56.154Z,67.20
2023-01-10T09:07:23.096Z,67.14
2023-01-10T09:09:53.928Z,66.82
2023-01-10T09:15:58.240Z,65.15
2023-01-10T09:18:27.840Z,64.63
2023-01-10T09:24:10.836Z,63.89
2023-01-10T09:26:38.291Z,63.82
2023-01-10T09:29:05.629Z,63.68
2023-01-10T09:31:32.607Z,63.47
2023-01-10T09:33:59.510Z,63.38
2023-01-10T09:36:28.563Z,63.26
2023-01-10T09:38:55.966Z,63.38
2023-01-10T09:41:40.921Z,63.41
2023-01-10T09:44:18.641Z,63.05
2023-01-10T09:46:54.971Z,62.08
2023-01-10T09:53:09.360Z,62.38
2023-01-10T09:58:28.320Z,62.10
2023-01-10T10:01:08.211Z,61.44
2023-01-10T10:03:41.973Z,60.66
2023-01-10T10:06:14.033Z,60.13
2023-01-10T10:08:41.591Z,59.41
2023-01-10T10:11:27.082Z,59.23
2023-01-10T10:14:31.973Z,58.85
2023-01-10T10:16:59.007Z,59.43
2023-01-10T10:19:51.033Z,59.62
2023-01-10T10:22:52.991Z,60.18
2023-01-10T10:25:48.284Z,60.30
2023-01-10T10:28:15.030Z,60.54
2023-01-10T10:30:56.606Z,60.92
2023-01-10T10:34:01.436Z,61.05
2023-01-10T10:36:56.502Z,61.20
2023-01-10T10:39:51.505Z,61.70
2023-01-10T10:42:18.863Z,62.17
2023-01-10T10:44:53.293Z,62.43
2023-01-10T10:47:23.635Z,62.32
2023-01-10T10:50:03.001Z,62.68
2023-01-10T10:52:32.363Z,62.51
2023-01-10T10:54:59.338Z,62.39
2023-01-10T10:57:28.176Z,62.63
2023-01-10T10:59:57.070Z,62.47
2023-01-10T11:02:32.087Z,62.73
2023-01-10T11:05:04.053Z,62.92
2023-01-10T11:07:36.968Z,63.05
2023-01-10T11:10:17.378Z,63.05
2023-01-10T11:12:53.076Z,62.90
2023-01-10T11:15:39.492Z,62.81
2023-01-10T11:18:10.718Z,62.59
2023-01-10T11:20:37.913Z,62.54
2023-01-10T11:23:05.084Z,62.86
2023-01-10T11:25:32.226Z,62.80
2023-01-10T11:28:01.278Z,62.39
2023-01-10T11:30:30.321Z,62.37
2023-01-10T11:33:03.464Z,62.20
2023-01-10T11:35:37.149Z,62.33
2023-01-10T11:38:07.123Z,62.41
2023-01-10T11:40:34.847Z,62.60
2023-01-10T11:43:02.138Z,62.82
2023-01-10T11:45:33.235Z,62.92
2023-01-10T11:48:19.171Z,62.74
2023-01-10T11:50:52.210Z,62.75
2023-01-10T11:53:40.902Z,62.38
2023-01-10T11:56:16.416Z,62.34
2023-01-10T11:58:45.168Z,62.50
2023-01-10T12:01:30.760Z,62.58
2023-01-10T12:03:57.841Z,62.36
2023-01-10T12:06:26.391Z,62.09
2023-01-10T12:08:56.394Z,61.93
2023-01-10T12:11:27.622Z,61.30
2023-01-10T12:13:58.941Z,61.11
2023-01-10T12:16:28.936Z,61.12
2023-01-10T12:19:03.082Z,61.19
2023-01-10T12:21:39.243Z,61.04
2023-01-10T12:24:16.480Z,60.94
2023-01-10T12:26:43.544Z,60.98
2023-01-10T12:29:16.860Z,61.33
2023-01-10T12:31:44.099Z,61.43
2023-01-10T12:34:20.496Z,61.45
2023-01-10T12:37:24.534Z,61.26
2023-01-10T12:40:17.219Z,61.58
2023-01-10T12:43:51.535Z,61.96
2023-01-10T12:46:40.966Z,61.84
2023-01-10T12:49:26.233Z,61.69
2023-01-10T12:51:53.671Z,61.44
2023-01-10T12:54:25.812Z,61.21
2023-01-10T12:56:52.682Z,61.08
2023-01-10T12:59:36.957Z,61.00
2023-01-10T13:02:38.492Z,61.15
2023-01-10T13:05:05.783Z,61.41
2023-01-10T13:07:33.662Z,61.25
2023-01-10T13:10:02.322Z,61.40
2023-01-10T13:12:35.404Z,61.68
2023-01-10T13:15:14.764Z,61.74
2023-01-10T13:17:47.806Z,61.69
2023-01-10T13:20:23.930Z,61.79
2023-01-10T13:22:59.379Z,61.78
2023-01-10T13:25:36.019Z,61.70
2023-01-10T13:28:07.738Z,61.85
2023-01-10T13:30:42.547Z,61.80
2023-01-10T13:33:26.671Z,61.88
2023-01-10T13:35:58.197Z,61.75
2023-01-10T13:38:53.098Z,61.90
2023-01-10T13:41:38.867Z,61.85
2023-01-10T13:44:06.030Z,61.91
2023-01-10T13:46:38.816Z,61.92
2023-01-10T13:49:24.179Z,61.94
2023-01-10T13:52:28.561Z,61.81
2023-01-10T13:54:58.148Z,61.59
2023-01-10T13:57:51.703Z,61.64
2023-01-10T14:00:41.406Z,61.07
2023-01-10T14:03:08.492Z,60.99
2023-01-10T14:05:35.429Z,61.03
2023-01-10T14:08:02.284Z,60.43
2023-01-10T14:10:30.305Z,60.26
2023-01-10T14:13:09.419Z,60.04
2023-01-10T14:15:41.965Z,60.12
2023-01-10T14:18:17.110Z,59.89
2023-01-10T14:20:44.202Z,59.55
2023-01-10T14:23:21.492Z,59.38
2023-01-10T14:25:53.235Z,59.45
2023-01-10T14:28:25.755Z,59.33
2023-01-10T14:31:13.389Z,59.14
2023-01-10T14:33:42.154Z,58.65
2023-01-10T14:36:10.729Z,58.68
2023-01-10T14:38:37.933Z,58.63
2023-01-10T14:41:41.315Z,58.13
2023-01-10T14:44:30.881Z,58.21
2023-01-10T14:46:58.911Z,57.94
2023-01-10T14:49:36.246Z,57.22
2023-01-10T14:52:12.249Z,57.28
2023-01-10T14:54:39.266Z,57.18
2023-01-10T14:57:16.368Z,57.24
2023-01-10T14:59:43.352Z,57.16
2023-01-10T15:02:22.378Z,56.90
2023-01-10T15:05:07.750Z,57.02
2023-01-10T15:07:34.781Z,57.07
2023-01-10T15:10:06.283Z,56.91
2023-01-10T15:12:33.161Z,56.90
2023-01-10T15:15:22.952Z,56.72
2023-01-10T15:17:49.893Z,56.51
2023-01-10T15:20:17.332Z,56.31
2023-01-10T15:22:56.613Z,55.99
2023-01-10T15:25:28.849Z,55.67
2023-01-10T15:27:57.606Z,55.36
2023-01-10T15:30:26.392Z,55.40
2023-01-10T15:33:17.596Z,55.59
2023-01-10T15:35:44.567Z,55.57
2023-01-10T15:38:21.308Z,55.84
2023-01-10T15:40:59.075Z,55.62
2023-01-10T15:43:29.180Z,55.26
2023-01-10T15:45:56.976Z,55.35
2023-01-10T15:48:33.936Z,55.31
2023-01-10T15:51:20.809Z,55.14
2023-01-10T15:53:52.900Z,55.31
2023-01-10T15:56:22.609Z,55.19
2023-01-10T15:58:50.227Z,54.95
2023-01-10T16:01:17.184Z,55.03
2023-01-10T16:03:50.152Z,55.34
2023-01-10T16:06:30.239Z,55.35
2023-01-10T16:08:58.552Z,55.19
2023-01-10T16:11:56.333Z,55.47
2023-01-10T16:14:23.303Z,55.29
2023-01-10T16:16:50.232Z,55.20
2023-01-10T16:19:17.131Z,54.89
2023-01-10T16:21:45.868Z,54.79
2023-01-10T16:24:21.269Z,55.15
2023-01-10T16:26:48.403Z,55.08
2023-01-10T16:29:15.326Z,54.75
2023-01-10T16:31:42.503Z,54.98
2023-01-10T16:34:09.627Z,54.56
2023-01-10T16:36:36.671Z,54.38
2023-01-10T16:39:08.814Z,54.22
2023-01-10T16:41:54.602Z,54.31
2023-01-10T16:44:21.589Z,54.25
2023-01-10T16:46:48.976Z,54.38
2023-01-10T16:49:15.943Z,54.30
2023-01-10T16:51:42.898Z,54.09
2023-01-10T16:54:19.681Z,53.72
2023-01-10T16:56:47.367Z,53.33
2023-01-10T16:59:16.112Z,53.30
2023-01-10T17:02:03.616Z,53.47
2023-01-10T17:04:32.865Z,53.52
2023-01-10T17:07:00.257Z,53.61
2023-01-10T17:09:28.556Z,53.57
2023-01-10T17:12:03.347Z,53.84
2023-01-10T17:14:36.513Z,53.92
2023-01-10T17:17:03.687Z,53.77
2023-01-10T17:19:30.555Z,53.89
2023-01-10T17:21:57.289Z,54.01
2023-01-10T17:24:24.569Z,53.88
2023-01-10T17:26:51.492Z,54.11
2023-01-10T17:29:18.352Z,54.06
2023-01-10T17:31:45.492Z,54.54
2023-01-10T17:34:12.319Z,54.80
2023-01-10T17:36:39.995Z,55.44
2023-01-10T17:39:06.900Z,56.28
2023-01-10T17:41:33.990Z,56.54
2023-01-10T17:44:00.818Z,56.82
2023-01-10T17:46:27.637Z,56.79
2023-01-10T17:48:54.506Z,57.18
2023-01-10T17:51:22.978Z,57.64
2023-01-10T17:53:49.879Z,58.10
2023-01-10T17:56:16.754Z,58.74
2023-01-10T17:58:44.390Z,59.61
2023-01-10T18:03:21.942Z,61.11
2023-01-10T18:05:55.917Z,61.38
2023-01-10T18:08:23.453Z,64.06
2023-01-10T18:10:50.354Z,65.30
2023-01-10T18:13:18.332Z,65.56
2023-01-10T18:15:47.643Z,65.64
2023-01-10T18:18:14.749Z,65.70
2023-01-10T18:20:44.917Z,66.06
2023-01-10T18:23:21.680Z,66.43
2023-01-10T18:26:02.273Z,67.24
2023-01-10T18:28:40.563Z,67.74
2023-01-10T18:31:16.615Z,68.50
2023-01-10T18:33:44.993Z,68.96
2023-01-10T18:36:17.483Z,69.14
2023-01-10T18:38:45.995Z,69.37
2023-01-10T18:41:13.228Z,69.57
2023-01-10T18:43:39.995Z,69.92
2023-01-10T18:46:09.575Z,70.13
2023-01-10T18:48:36.984Z,70.21
2023-01-10T18:51:04.256Z,71.80
2023-01-10T18:53:32.083Z,71.90
2023-01-10T18:56:00.231Z,72.53
2023-01-10T18:58:31.470Z,73.29
2023-01-10T19:00:58.641Z,73.32
2023-01-10T19:03:25.516Z,73.70
2023-01-10T19:05:52.436Z,74.10
2023-01-10T19:08:19.421Z,74.47
2023-01-10T19:11:11.458Z,74.74
2023-01-10T19:13:33.157Z,75.24
2023-01-10T19:16:19.094Z,75.30
2023-01-10T19:18:53.737Z,75.29
2023-01-10T19:21:21.485Z,75.69
2023-01-10T19:23:49.858Z,75.56
2023-01-10T19:26:17.088Z,75.61
2023-01-10T19:28:44.544Z,76.14
2023-01-10T19:31:38.179Z,76.54
2023-01-10T19:34:05.049Z,76.44
2023-01-10T19:36:34.949Z,76.47
2023-01-10T19:39:04.406Z,76.70
2023-01-10T19:41:31.598Z,77.13
2023-01-10T19:43:59.888Z,76.87
2023-01-10T19:46:26.870Z,77.36
2023-01-10T19:48:56.690Z,77.87
2023-01-10T19:51:24.798Z,77.92
2023-01-10T19:53:51.910Z,77.93
2023-01-10T19:56:25.146Z,77.88
2023-01-10T19:58:53.591Z,78.12
2023-01-10T20:01:26.331Z,78.19
2023-01-10T20:03:55.566Z,78.31
2023-01-10T20:06:25.061Z,78.63
2023-01-10T20:08:54.462Z,78.68
2023-01-10T20:11:23.040Z,78.37
2023-01-10T20:13:50.334Z,78.24
2023-01-10T20:16:19.784Z,78.32
2023-01-10T20:18:47.300Z,78.35
2023-01-10T20:21:15.548Z,78.78
2023-01-10T20:23:42.701Z,78.80
2023-01-10T20:26:21.118Z,78.69
2023-01-10T20:28:48.875Z,78.61
2023-01-10T20:31:21.738Z,78.69
2023-01-10T20:33:49.101Z,79.05
2023-01-10T20:36:17.852Z,79.34
2023-01-10T20:38:44.834Z,79.87
2023-01-10T20:41:17.504Z,79.78
2023-01-10T20:43:44.483Z,79.61
2023-01-10T20:46:13.377Z,79.49
2023-01-10T20:48:41.849Z,79.81
2023-01-10T20:51:11.855Z,79.98
2023-01-10T20:53:38.693Z,80.42
2023-01-10T20:56:07.484Z,80.39
2023-01-10T20:58:38.162Z,80.38
2023-01-10T21:01:05.821Z,80.42
2023-01-10T21:03:33.584Z,80.78
2023-01-10T21:06:01.097Z,80.57
2023-01-10T21:08:29.844Z,80.74
2023-01-10T21:10:57.480Z,80.58
2023-01-10T21:13:24.968Z,80.36
2023-01-10T21:15:55.420Z,80.29
2023-01-10T21:18:25.009Z,79.96
2023-01-10T21:20:54.769Z,79.76
2023-01-10T21:23:22.684Z,79.56
2023-01-10T21:25:49.894Z,79.68
2023-01-10T21:28:16.952Z,79.66
2023-01-10T21:30:43.904Z,79.53
2023-01-10T21:33:11.509Z,79.32
2023-01-10T21:35:40.263Z,79.78
2023-01-10T21:38:07.897Z,79.71
2023-01-10T21:40:35.302Z,79.74
2023-01-10T21:43:02.885Z,79.74
2023-01-10T21:45:31.651Z,79.44
2023-01-10T21:47:58.565Z,79.19
2023-01-10T21:50:25.502Z,78.64
2023-01-10T21:52:52.460Z,79.14
2023-01-10T21:55:19.532Z,78.99
2023-01-10T21:57:46.875Z,79.09
2023-01-10T22:00:14.066Z,78.83
2023-01-10T22:02:42.534Z,79.27
2023-01-10T22:05:12.320Z,79.13
2023-01-10T22:07:39.204Z,78.90
2023-01-10T22:10:07.538Z,78.79
2023-01-10T22:12:36.806Z,78.86
2023-01-10T22:15:04.117Z,78.74
2023-01-10T22:17:30.961Z,78.48
2023-01-10T22:19:57.933Z,78.16
2023-01-10T22:22:24.854Z,78.15
2023-01-10T22:24:51.762Z,77.88
2023-01-10T22:27:19.985Z,77.68
2023-01-10T22:29:47.531Z,77.62
2023-01-10T22:32:14.492Z,77.65
2023-01-10T22:34:41.402Z,78.05
2023-01-10T22:37:08.273Z,77.96
2023-01-10T22:39:35.137Z,77.37
2023-01-10T22:42:03.788Z,76.97
2023-01-10T22:44:30.724Z,77.11
2023-01-10T22:46:59.794Z,77.06
2023-01-10T22:49:26.554Z,76.86
2023-01-10T22:51:54.154Z,76.92
2023-01-10T22:54:20.986Z,76.54
2023-01-10T22:56:47.917Z,76.58
2023-01-10T22:59:14.870Z,76.47
2023-01-10T23:01:42.793Z,76.47
2023-01-10T23:04:10.605Z,76.40
2023-01-10T23:06:37.538Z,76.30
2023-01-10T23:09:04.517Z,76.45
2023-01-10T23:11:31.372Z,76.50
2023-01-10T23:13:58.329Z,76.30
2023-01-10T23:16:29.861Z,76.17
2023-01-10T23:18:57.778Z,76.55
2023-01-10T23:21:25.276Z,77.12
2023-01-10T23:23:52.203Z,77.36
2023-01-10T23:26:19.300Z,77.53
2023-01-10T23:28:47.891Z,77.48
2023-01-10T23:31:16.213Z,77.79
2023-01-10T23:33:43.296Z,77.52
2023-01-10T23:36:11.263Z,77.59
2023-01-10T23:38:38.373Z,77.35
2023-01-10T23:41:05.533Z,77.12
2023-01-10T23:43:32.456Z,76.69
2023-01-10T23:45:59.436Z,76.41
2023-01-10T23:48:26.505Z,76.34
2023-01-10T23:50:53.358Z,76.79
2023-01-10T23:53:20.162Z,76.29
2023-01-10T23:55:47.067Z,75.96
2023-01-10T23:58:14.064Z,76.06
